Terminal Aerodrome Forecast
Issued by NWS

Current Version | Previous Version | Text Only | Print | Product List | Glossary On
Versions: 1 2 3 4 5 6 7 8 9 10 11 12 13 14 15 16 17 18 19 20 21 22
000
FTUS44 KMAF 221700
TAFHOB
TAF
KHOB 221721Z 2218/2318 10011KT P6SM FEW007 BKN035
      TEMPO 2218/2222 5SM -SHRA BR OVC005
     FM230300 11006KT P6SM OVC020
      TEMPO 2304/2308 4SM -SHRA BR OVC010
     FM231600 16008KT P6SM BKN070=

USA.gov is the U.S. government's official web portal to all federal, state and local government web resources and services.